LGTSLGKO

Guest
Details From LGTS - Thessalonik Makedonia
To LGKO - KOS
Flight Number -
Tags generated
Created
Modified
Stats Distance 297 nm / 550 km
Max Altitude 35,000 ft / 10,668 m
Waypoints 5
Social Downloads 1
Likes 0
Share VATSIM

Download

Looking for another format? Having issues loading an existing format? Contact us
Advertisement - Login to hide

Notes

Basic altitude profile: - Ascent Rate: 2500ft/min - Ascent Speed: 250kts - Cruise Altitude: 35000ft - Cruise Speed: 420kts - Descent Rate: 1500ft/min - Descent Speed: 250kts Options: - Use NATs: yes - Use PACOTS: yes - Use low airways: yes - Use high airways: yes

Route

LGTS ESOPO UN130 MES LGKO

ID Type Via Altitude Latitude Longitude Leg Dist Tot Dist Heading (true) Name
O LGTS APT - 0 ft / 0 m 40.51952˚ 22.97202˚ - 0 nm - Thessalonik Makedonia
ESOPO FIX - 35,000 ft / 10,668 m 39.33944˚ 24.50222˚ 99 nm 99 nm 135° / 136° -
PIVOS FIX UN130 (AWY-HI) 23,500 ft / 7,163 m 38.37472˚ 25.75028˚ 82 nm 182 nm 134° / 135° -
MES VOR UN130 (AWY-HI) 23,500 ft / 7,163 m 38.25167˚ 25.90556˚ 10 nm 192 nm 135° / 135° MESTA VOR-DME
O LGKO APT - 0 ft / 0 m 36.79440˚ 27.09076˚ 104 nm 296 nm 147° / 148° KOS

Altitude Profile

Advertisement - Login to hide

Weather


0- 5 10 15 20 25 30 35+ Temperature / ° C

Clouds and Precipitation
Forecast for 2017-12-14 06:00 UTC. Updated an hour ago

Ground ~20,000 ft ~40,000 ft Winds

LGTS

Details ICAO LGTS (SKG)
Name Thessalonik Makedonia
Region Greece
Timezone Europe/Athens (UTC+2.0)
Stats Elevation 22 ft / 7 m (AMSL)
Location 40.519522° 22.972017°
Runways 2
Magnetic Variation 4.622° E

METAR

LGTS 140220Z 10005KT CAVOK 09/05 Q1013 NOSIG

Decode

TAF

TAF LGTS 132300Z 1400/1424 VRB03KT 6000 FEW015 SCT030 PROB40 TEMPO 1400/1404 3000 BR FEW008 SCT025 BECMG 1404/1406 34010KT 9999 FEW030

Decode

Departure Runways

ID Width Length Bearing (true) Bearing (mag) Surface Threshold Offset Overrun Length
10 164 ft / 50 m 7,990 ft / 2,435 m 103.95° 99.33° Asphalt 0 ft / 0 m 150 ft / 46 m
16 197 ft / 60 m 7,927 ft / 2,416 m 166.35° 161.73° Asphalt 0 ft / 0 m 200 ft / 61 m
28 164 ft / 50 m 7,990 ft / 2,435 m 283.97° 279.35° Asphalt 0 ft / 0 m 150 ft / 46 m
34 197 ft / 60 m 7,927 ft / 2,416 m 346.36° 341.74° Asphalt 0 ft / 0 m 200 ft / 61 m

LGKO

Details ICAO LGKO (KGS)
Name KOS
Region Greece
Timezone Europe/Athens (UTC+2.0)
Stats Elevation 412 ft / 126 m (AMSL)
Location 36.794403° 27.090764°
Runways 1
Magnetic Variation 4.723° E

METAR

LGKO 140150Z 00000KT 9999 FEW016 SCT025 11/10 Q1018

Decode

TAF

TAF LGKO 132300Z 1400/1424 VRB05KT 9999 FEW016 BECMG 1400/1402 27012KT

Decode

Destination Runways

ID Width Length Bearing (true) Bearing (mag) Surface Threshold Offset Overrun Length
14 148 ft / 45 m 7,923 ft / 2,415 m 148.29° 143.57° Asphalt 0 ft / 0 m 240 ft / 73 m
32 148 ft / 45 m 7,923 ft / 2,415 m 328.30° 323.58° Asphalt 0 ft / 0 m 205 ft / 62 m

Popular Alternatives